createdAt,value
2022-10-31T00:01:55.958Z,79.36
2022-10-31T00:11:58.052Z,80.49
2022-10-31T00:22:00.183Z,80.63
2022-10-31T00:32:02.259Z,79.83
2022-10-31T00:42:04.495Z,79.56
2022-10-31T00:52:06.732Z,80.96
2022-10-31T01:02:09.004Z,81.07
2022-10-31T01:12:11.258Z,82.43
2022-10-31T01:22:13.320Z,80.99
2022-10-31T01:32:16.088Z,81.68
2022-10-31T01:42:23.369Z,80.97
2022-10-31T01:52:31.823Z,82.40
2022-10-31T02:02:34.112Z,82.87
2022-10-31T02:12:37.436Z,81.98
2022-10-31T02:22:54.139Z,81.45
2022-10-31T02:33:01.973Z,82.50
2022-10-31T02:43:30.461Z,82.84
2022-10-31T02:53:36.070Z,82.12
2022-10-31T03:03:46.794Z,80.85
2022-10-31T03:13:51.760Z,81.30
2022-10-31T03:23:55.880Z,82.17
2022-10-31T03:34:01.633Z,83.05
2022-10-31T03:44:09.479Z,82.69
2022-10-31T03:54:24.181Z,82.82
2022-10-31T04:04:27.587Z,82.20
2022-10-31T04:14:33.372Z,82.02
2022-10-31T04:24:35.538Z,82.42
2022-10-31T04:34:37.610Z,82.98
2022-10-31T04:44:39.677Z,82.84
2022-10-31T04:54:41.769Z,82.48
2022-10-31T05:04:43.850Z,82.29
2022-10-31T05:14:48.507Z,82.21
2022-10-31T05:24:50.963Z,82.00
2022-10-31T05:34:53.078Z,82.11
2022-10-31T05:44:55.146Z,82.15
2022-10-31T05:54:57.272Z,84.75
2022-10-31T06:04:59.432Z,83.58
2022-10-31T06:15:01.586Z,83.55
2022-10-31T06:25:03.965Z,83.35
2022-10-31T06:35:06.593Z,85.43
2022-10-31T06:45:09.023Z,83.49
2022-10-31T06:55:11.127Z,83.94
2022-10-31T07:05:13.427Z,86.48
2022-10-31T07:15:15.690Z,84.41
2022-10-31T07:25:17.840Z,82.36
2022-10-31T07:35:29.958Z,83.26
2022-10-31T07:45:32.416Z,82.05
2022-10-31T07:55:35.681Z,80.74
2022-10-31T08:05:38.309Z,80.98
2022-10-31T08:15:42.589Z,78.93
2022-10-31T08:25:44.839Z,77.33
2022-10-31T08:35:46.967Z,75.66
2022-10-31T08:45:50.325Z,74.15
2022-10-31T08:55:55.904Z,72.54
2022-10-31T09:06:00.467Z,70.39
2022-10-31T09:16:02.676Z,68.18
2022-10-31T09:26:05.037Z,66.39
2022-10-31T09:36:07.276Z,65.09
2022-10-31T09:46:19.207Z,63.20
2022-10-31T09:56:25.703Z,62.73
2022-10-31T10:06:30.834Z,60.65
2022-10-31T10:17:10.257Z,58.93
2022-10-31T10:27:23.554Z,57.92
2022-10-31T10:37:25.813Z,56.96
2022-10-31T10:47:41.471Z,55.11
2022-10-31T10:57:55.298Z,52.07
2022-10-31T11:07:57.597Z,52.02
2022-10-31T11:18:00.606Z,51.49
2022-10-31T11:28:09.939Z,49.44
2022-10-31T11:38:19.578Z,49.79
2022-10-31T11:48:25.879Z,48.76
2022-10-31T11:58:28.520Z,48.83
2022-10-31T12:08:37.094Z,47.85
2022-10-31T12:18:52.081Z,50.67
2022-10-31T12:29:28.244Z,50.74
2022-10-31T12:39:36.546Z,49.83
2022-10-31T12:50:12.961Z,48.57
2022-10-31T13:00:18.038Z,49.12
2022-10-31T13:10:44.485Z,51.17
2022-10-31T13:43:36.742Z,56.75
2022-10-31T13:53:54.622Z,57.98
2022-10-31T14:04:11.102Z,59.23
2022-10-31T14:14:16.883Z,60.65
2022-10-31T14:24:25.092Z,62.19
2022-10-31T14:34:36.074Z,63.48
2022-10-31T14:45:19.682Z,65.35
2022-10-31T14:55:22.978Z,65.55
2022-10-31T15:05:28.067Z,67.05
2022-10-31T15:15:31.735Z,67.13
2022-10-31T15:25:36.039Z,68.48
2022-10-31T15:35:38.315Z,69.45
2022-10-31T15:45:43.758Z,70.82
2022-10-31T15:55:54.263Z,71.41
2022-10-31T16:06:01.451Z,71.13
2022-10-31T16:16:34.065Z,73.09
2022-10-31T16:26:34.904Z,74.16
2022-10-31T16:36:39.590Z,73.74
2022-10-31T16:46:41.784Z,76.62
2022-10-31T16:56:44.093Z,76.16
2022-10-31T17:06:46.371Z,76.58
2022-10-31T17:16:49.424Z,76.88
2022-10-31T17:26:51.734Z,78.66
2022-10-31T17:36:53.993Z,79.48
2022-10-31T17:46:56.228Z,78.60
2022-10-31T17:56:58.458Z,78.44
2022-10-31T18:07:00.942Z,78.28
2022-10-31T18:17:03.499Z,80.75
2022-10-31T18:27:05.761Z,81.32
2022-10-31T18:37:07.922Z,80.56
2022-10-31T18:47:10.006Z,81.68
2022-10-31T18:57:12.301Z,79.89
2022-10-31T19:07:14.470Z,80.01
2022-10-31T19:17:16.682Z,80.60
2022-10-31T19:27:19.007Z,82.22
2022-10-31T19:37:21.115Z,80.95
2022-10-31T19:47:23.269Z,81.05
2022-10-31T19:57:48.422Z,80.45
2022-10-31T20:07:47.568Z,80.63
2022-10-31T20:17:49.661Z,80.21
2022-10-31T20:27:51.970Z,81.51
2022-10-31T20:37:54.147Z,81.42
2022-10-31T20:48:00.015Z,81.43
2022-10-31T20:58:02.323Z,82.58
2022-10-31T21:08:04.567Z,84.62
2022-10-31T21:18:06.720Z,83.49
2022-10-31T21:28:10.586Z,83.33
2022-10-31T21:40:10.757Z,85.14
2022-10-31T21:50:12.971Z,83.56
2022-10-31T22:00:15.761Z,83.92
2022-10-31T22:10:17.931Z,83.81
2022-10-31T22:20:21.468Z,82.77
2022-10-31T22:30:23.586Z,84.12
2022-10-31T22:40:25.727Z,82.97
2022-10-31T22:50:27.888Z,83.81
2022-10-31T23:00:30.003Z,84.16
2022-10-31T23:10:35.879Z,83.74
2022-10-31T23:20:38.494Z,85.32
2022-10-31T23:30:40.605Z,84.47
2022-10-31T23:40:43.536Z,84.71
2022-10-31T23:50:47.169Z,84.80
